tititudorancea.com
Station Historical Data
Daily Summary for December 07, 2018 Units:  Both    English   Metric
« Previous Day
Next Day »
Daily Weekly Monthly Yearly Custom
  High: Low: Average:
Temperature: TemperatureF °F /  -17.8 °C 66.4 °F /  19.1 °C 84.8 °F /  29.3 °C
Dew Point: DewpointF °F /  -17.8 °C 40.8 °F /  4.9 °C 47.4 °F /  8.6 °C
Humidity: Humidity % 14 % 29 %
Wind Speed: WindSpeedMPH mph /  0 km/h - 11.2 mph /  18 km/h
Wind Gust: WindSpeedGustMPH mph /  0 km/h - -
Wind:- - WNW
Pressure: PressureIn in /  0 hPa 29.72 in /  1006.3 hPa -
Precipitation: 0 in /  0 mm    
Historical Graphs
 
 
Ararat weather Find more about Weather in Ararat, AU


 



 


Tabular Data for December 07, 2018
Time Temperature Dew Point Pressure Wind Wind Speed Wind Gust Humidity Rainfall Rate (Hourly)
TemperatureF °F /  -17.8 °C DewpointF °F /  -17.8 °C PressureIn in /  0 hPa Calm     Humidity % HourlyPrecipIn in /  0 mm
00:04 70.3 °F /  21.3 °C 46.7 °F /  8.2 °C 29.83 in /  1010 hPa Calm     43 % 0 in /  0 mm
00:09 70 °F /  21.1 °C 46.5 °F /  8.1 °C 29.83 in /  1010 hPa Calm     43 % 0 in /  0 mm
00:14 69.7 °F /  20.9 °C 47.4 °F /  8.6 °C 29.83 in /  1010 hPa Calm     45 % 0 in /  0 mm
00:19 69.4 °F /  20.8 °C 47.7 °F /  8.7 °C 29.83 in /  1010 hPa Calm     46 % 0 in /  0 mm
00:24 69.1 °F /  20.6 °C 48 °F /  8.9 °C 29.83 in /  1010 hPa Calm     47 % 0 in /  0 mm
00:29 69.1 °F /  20.6 °C 47.4 °F /  8.6 °C 29.83 in /  1010 hPa Calm     46 % 0 in /  0 mm
00:34 69.3 °F /  20.7 °C 48.2 °F /  9 °C 29.83 in /  1010 hPa North 2.3 mph /  3.7 km/h 2.3 mph /  3.7 km/h 47 % 0 in /  0 mm
00:39 69.3 °F /  20.7 °C 47.6 °F /  8.7 °C 29.83 in /  1010 hPa NNW 3.5 mph /  5.6 km/h 1.8 mph /  2.9 km/h 46 % 0 in /  0 mm
00:44 69.4 °F /  20.8 °C 47.7 °F /  8.7 °C 29.82 in /  1009.7 hPa Calm     46 % 0 in /  0 mm
00:49 69.6 °F /  20.9 °C 48.5 °F /  9.2 °C 29.83 in /  1010 hPa Calm     47 % 0 in /  0 mm
00:54 69.6 °F /  20.9 °C 48.5 °F /  9.2 °C 29.82 in /  1009.7 hPa NNW 2.3 mph /  3.7 km/h 0.3 mph /  0.5 km/h 47 % 0 in /  0 mm
00:59 69.4 °F /  20.8 °C 48.9 °F /  9.4 °C 29.82 in /  1009.7 hPa Calm     48 % 0 in /  0 mm
01:04 68.9 °F /  20.5 °C 48.4 °F /  9.1 °C 29.82 in /  1009.7 hPa NNW 1.2 mph /  1.9 km/h 1.3 mph /  2.1 km/h 48 % 0 in /  0 mm
01:09 68.8 °F /  20.4 °C 48.3 °F /  9.1 °C 29.82 in /  1009.7 hPa Calm   0.3 mph /  0.5 km/h 48 % 0 in /  0 mm
01:14 68.7 °F /  20.4 °C 48.8 °F /  9.3 °C 29.82 in /  1009.7 hPa Calm     49 % 0 in /  0 mm
01:19 68.5 °F /  20.3 °C 48.6 °F /  9.2 °C 29.82 in /  1009.7 hPa Calm     49 % 0 in /  0 mm
01:24 68 °F /  20 °C 48.7 °F /  9.3 °C 29.82 in /  1009.7 hPa Calm     50 % 0 in /  0 mm
01:29 67.8 °F /  19.9 °C 48.5 °F /  9.2 °C 29.82 in /  1009.7 hPa Calm     50 % 0 in /  0 mm
01:34 67.4 °F /  19.7 °C 48.6 °F /  9.2 °C 29.82 in /  1009.7 hPa Calm     51 % 0 in /  0 mm
01:39 67.1 °F /  19.5 °C 48.4 °F /  9.1 °C 29.82 in /  1009.7 hPa Calm     51 % 0 in /  0 mm
01:44 66.7 °F /  19.3 °C 49 °F /  9.4 °C 29.82 in /  1009.7 hPa Calm     53 % 0 in /  0 mm
01:49 66.6 °F /  19.2 °C 48.4 °F /  9.1 °C 29.82 in /  1009.7 hPa Calm     52 % 0 in /  0 mm
01:54 66.4 °F /  19.1 °C 47.7 °F /  8.7 °C 29.82 in /  1009.7 hPa Calm     51 % 0 in /  0 mm
01:59 66.4 °F /  19.1 °C 47.7 °F /  8.7 °C 29.81 in /  1009.4 hPa NNW 2 mph /  3.2 km/h 0.2 mph /  0.3 km/h 51 % 0 in /  0 mm
02:04 66.4 °F /  19.1 °C 48.2 °F /  9 °C 29.81 in /  1009.4 hPa North 3.5 mph /  5.6 km/h 0.3 mph /  0.5 km/h 52 % 0 in /  0 mm
02:09 66.4 °F /  19.1 °C 47.7 °F /  8.7 °C 29.81 in /  1009.4 hPa NNW 3 mph /  4.8 km/h 1.5 mph /  2.4 km/h 51 % 0 in /  0 mm
02:14 66.5 °F /  19.2 °C 47.3 °F /  8.5 °C 29.81 in /  1009.4 hPa NNW 2.3 mph /  3.7 km/h 1 mph /  1.6 km/h 50 % 0 in /  0 mm
02:19 66.8 °F /  19.3 °C 47 °F /  8.3 °C 29.81 in /  1009.4 hPa NNW 2.3 mph /  3.7 km/h 1.8 mph /  2.9 km/h 49 % 0 in /  0 mm
02:24 67.5 °F /  19.7 °C 46.6 °F /  8.1 °C 29.81 in /  1009.4 hPa NNW 3.5 mph /  5.6 km/h 1.9 mph /  3.1 km/h 47 % 0 in /  0 mm
02:29 69 °F /  20.6 °C 45.6 °F /  7.6 °C 29.80 in /  1009 hPa NNW 3.5 mph /  5.6 km/h 3.3 mph /  5.3 km/h 43 % 0 in /  0 mm
02:34 71 °F /  21.7 °C 46.1 °F /  7.8 °C 29.80 in /  1009 hPa NNW 3.5 mph /  5.6 km/h 2.2 mph /  3.5 km/h 41 % 0 in /  0 mm
02:39 73.3 °F /  22.9 °C 46.2 °F /  7.9 °C 29.80 in /  1009 hPa NNW 3.5 mph /  5.6 km/h 2 mph /  3.2 km/h 38 % 0 in /  0 mm
02:44 74.8 °F /  23.8 °C 46.1 °F /  7.8 °C 29.80 in /  1009 hPa North 3.5 mph /  5.6 km/h 1.8 mph /  2.9 km/h 36 % 0 in /  0 mm
02:49 75.5 °F /  24.2 °C 45.9 °F /  7.7 °C 29.80 in /  1009 hPa North 4.6 mph /  7.4 km/h 2.5 mph /  4 km/h 35 % 0 in /  0 mm
02:54 75.9 °F /  24.4 °C 46.3 °F /  7.9 °C 29.80 in /  1009 hPa NNW 3.5 mph /  5.6 km/h 2.3 mph /  3.7 km/h 35 % 0 in /  0 mm
02:59 76.2 °F /  24.6 °C 45.8 °F /  7.7 °C 29.80 in /  1009 hPa NNW 3.5 mph /  5.6 km/h 2.2 mph /  3.5 km/h 34 % 0 in /  0 mm
03:04 76.3 °F /  24.6 °C 45.9 °F /  7.7 °C 29.80 in /  1009 hPa North 4.6 mph /  7.4 km/h 3.2 mph /  5.1 km/h 34 % 0 in /  0 mm
03:09 76.8 °F /  24.9 °C 46.3 °F /  7.9 °C 29.80 in /  1009 hPa North 6.9 mph /  11.1 km/h 4.8 mph /  7.7 km/h 34 % 0 in /  0 mm
03:14 77.4 °F /  25.2 °C 46 °F /  7.8 °C 29.80 in /  1009 hPa North 5.8 mph /  9.3 km/h 3.3 mph /  5.3 km/h 33 % 0 in /  0 mm
03:19 77.6 °F /  25.3 °C 46.2 °F /  7.9 °C 29.80 in /  1009 hPa NNW 7 mph /  11.3 km/h 4.5 mph /  7.2 km/h 33 % 0 in /  0 mm
03:24 77.8 °F /  25.4 °C 46.4 °F /  8 °C 29.80 in /  1009 hPa NNW 5.8 mph /  9.3 km/h 3.1 mph /  5 km/h 33 % 0 in /  0 mm
03:29 77.8 °F /  25.4 °C 46.4 °F /  8 °C 29.80 in /  1009 hPa North 8.1 mph /  13 km/h 4.6 mph /  7.4 km/h 33 % 0 in /  0 mm
03:33 78 °F /  25.6 °C 46.6 °F /  8.1 °C 29.80 in /  1009 hPa NNW 9.2 mph /  14.8 km/h 4.2 mph /  6.8 km/h 33 % 0 in /  0 mm
03:39 77.8 °F /  25.4 °C 46.4 °F /  8 °C 29.80 in /  1009 hPa NNW 5.8 mph /  9.3 km/h 3.7 mph /  6 km/h 33 % 0 in /  0 mm
03:44 77.6 °F /  25.3 °C 46.2 °F /  7.9 °C 29.80 in /  1009 hPa NNW 5.8 mph /  9.3 km/h 3.8 mph /  6.1 km/h 33 % 0 in /  0 mm
03:49 77.4 °F /  25.2 °C 46.8 °F /  8.2 °C 29.80 in /  1009 hPa NNW 6.9 mph /  11.1 km/h 3.7 mph /  6 km/h 34 % 0 in /  0 mm
03:54 77.2 °F /  25.1 °C 46.7 °F /  8.2 °C 29.80 in /  1009 hPa NNW 4.6 mph /  7.4 km/h 2.5 mph /  4 km/h 34 % 0 in /  0 mm
03:59 76.9 °F /  24.9 °C 46.4 °F /  8 °C 29.80 in /  1009 hPa NNW 4.6 mph /  7.4 km/h 3.1 mph /  5 km/h 34 % 0 in /  0 mm
04:04 76.6 °F /  24.8 °C 46.9 °F /  8.3 °C 29.80 in /  1009 hPa NNW 6.9 mph /  11.1 km/h 4 mph /  6.4 km/h 35 % 0 in /  0 mm
04:09 76.2 °F /  24.6 °C 46.5 °F /  8.1 °C 29.80 in /  1009 hPa NNW 4.6 mph /  7.4 km/h 2.9 mph /  4.7 km/h 35 % 0 in /  0 mm
04:14 75.9 °F /  24.4 °C 47 °F /  8.3 °C 29.81 in /  1009.4 hPa North 3.5 mph /  5.6 km/h 2.4 mph /  3.9 km/h 36 % 0 in /  0 mm
04:19 75.6 °F /  24.2 °C 46.8 °F /  8.2 °C 29.81 in /  1009.4 hPa North 3.5 mph /  5.6 km/h 2.3 mph /  3.7 km/h 36 % 0 in /  0 mm
04:24 75.2 °F /  24 °C 47.1 °F /  8.4 °C 29.81 in /  1009.4 hPa North 3.5 mph /  5.6 km/h 2.5 mph /  4 km/h 37 % 0 in /  0 mm
04:29 75 °F /  23.9 °C 47 °F /  8.3 °C 29.81 in /  1009.4 hPa NNW 6 mph /  9.7 km/h 2.5 mph /  4 km/h 37 % 0 in /  0 mm
04:34 74.8 °F /  23.8 °C 46.8 °F /  8.2 °C 29.82 in /  1009.7 hPa North 4 mph /  6.4 km/h 2.6 mph /  4.2 km/h 37 % 0 in /  0 mm
04:39 74.8 °F /  23.8 °C 46.8 °F /  8.2 °C 29.82 in /  1009.7 hPa NNW 3.5 mph /  5.6 km/h 2.8 mph /  4.5 km/h 37 % 0 in /  0 mm
04:44 74.9 °F /  23.8 °C 46.9 °F /  8.3 °C 29.82 in /  1009.7 hPa NNW 5 mph /  8 km/h 3.2 mph /  5.1 km/h 37 % 0 in /  0 mm
04:49 74.9 °F /  23.8 °C 47.6 °F /  8.7 °C 29.82 in /  1009.7 hPa NNW 3.5 mph /  5.6 km/h 2.8 mph /  4.5 km/h 38 % 0 in /  0 mm
04:54 74.9 °F /  23.8 °C 47.6 °F /  8.7 °C 29.83 in /  1010 hPa NNW 3.5 mph /  5.6 km/h 1.9 mph /  3.1 km/h 38 % 0 in /  0 mm
04:59 75 °F /  23.9 °C 47.7 °F /  8.7 °C 29.83 in /  1010 hPa NNW 3.5 mph /  5.6 km/h 1.6 mph /  2.6 km/h 38 % 0 in /  0 mm
05:04 74.9 °F /  23.8 °C 47.6 °F /  8.7 °C 29.83 in /  1010 hPa NNW 2.3 mph /  3.7 km/h 1.2 mph /  1.9 km/h 38 % 0 in /  0 mm
05:09 74.7 °F /  23.7 °C 48.1 °F /  8.9 °C 29.83 in /  1010 hPa NNW 2.3 mph /  3.7 km/h 1.6 mph /  2.6 km/h 39 % 0 in /  0 mm
05:14 74.7 °F /  23.7 °C 48.1 °F /  8.9 °C 29.83 in /  1010 hPa NNW 3.5 mph /  5.6 km/h 2.8 mph /  4.5 km/h 39 % 0 in /  0 mm
05:19 74.7 °F /  23.7 °C 48.1 °F /  8.9 °C 29.83 in /  1010 hPa NNW 3.5 mph /  5.6 km/h 3.3 mph /  5.3 km/h 39 % 0 in /  0 mm
05:24 75 °F /  23.9 °C 48.4 °F /  9.1 °C 29.83 in /  1010 hPa North 5 mph /  8 km/h 3 mph /  4.8 km/h 39 % 0 in /  0 mm
05:29 75.2 °F /  24 °C 48.5 °F /  9.2 °C 29.83 in /  1010 hPa NNW 5.8 mph /  9.3 km/h 6 mph /  9.7 km/h 39 % 0 in /  0 mm
05:34 75.6 °F /  24.2 °C 48.9 °F /  9.4 °C 29.83 in /  1010 hPa NNW 9.2 mph /  14.8 km/h 6.1 mph /  9.8 km/h 39 % 0 in /  0 mm
05:39 76.3 °F /  24.6 °C 48.8 °F /  9.3 °C 29.84 in /  1010.4 hPa NNW 8.1 mph /  13 km/h 3.4 mph /  5.5 km/h 38 % 0 in /  0 mm
05:44 76.7 °F /  24.8 °C 48.5 °F /  9.2 °C 29.84 in /  1010.4 hPa North 8 mph /  12.9 km/h 5.5 mph /  8.9 km/h 37 % 0 in /  0 mm
05:49 77 °F /  25 °C 48.7 °F /  9.3 °C 29.84 in /  1010.4 hPa North 11.5 mph /  18.5 km/h 5.8 mph /  9.3 km/h 37 % 0 in /  0 mm
05:54 77.5 °F /  25.3 °C 48.4 °F /  9.1 °C 29.83 in /  1010 hPa North 9.2 mph /  14.8 km/h 6.2 mph /  10 km/h 36 % 0 in /  0 mm
05:59 77.8 °F /  25.4 °C 48.7 °F /  9.3 °C 29.84 in /  1010.4 hPa North 9.2 mph /  14.8 km/h 4.8 mph /  7.7 km/h 36 % 0 in /  0 mm
06:04 78 °F /  25.6 °C 48.9 °F /  9.4 °C 29.83 in /  1010 hPa North 10.4 mph /  16.7 km/h 4.9 mph /  7.9 km/h 36 % 0 in /  0 mm
06:09 78.1 °F /  25.6 °C 49 °F /  9.4 °C 29.83 in /  1010 hPa North 11.5 mph /  18.5 km/h 5.7 mph /  9.2 km/h 36 % 0 in /  0 mm
06:14 78.1 °F /  25.6 °C 49 °F /  9.4 °C 29.84 in /  1010.4 hPa North 11.5 mph /  18.5 km/h 6.5 mph /  10.5 km/h 36 % 0 in /  0 mm
06:19 78.1 °F /  25.6 °C 49 °F /  9.4 °C 29.84 in /  1010.4 hPa North 10 mph /  16.1 km/h 6.6 mph /  10.6 km/h 36 % 0 in /  0 mm
06:24 78.1 °F /  25.6 °C 49 °F /  9.4 °C 29.84 in /  1010.4 hPa North 11.5 mph /  18.5 km/h 5.8 mph /  9.3 km/h 36 % 0 in /  0 mm
06:29 78.1 °F /  25.6 °C 49 °F /  9.4 °C 29.84 in /  1010.4 hPa North 7 mph /  11.3 km/h 6.3 mph /  10.1 km/h 36 % 0 in /  0 mm
06:34 78 °F /  25.6 °C 48.9 °F /  9.4 °C 29.84 in /  1010.4 hPa NNE 6.9 mph /  11.1 km/h 4.9 mph /  7.9 km/h 36 % 0 in /  0 mm
06:39 77.9 °F /  25.5 °C 48.8 °F /  9.3 °C 29.84 in /  1010.4 hPa NNE 7 mph /  11.3 km/h 6 mph /  9.7 km/h 36 % 0 in /  0 mm
06:44 78.1 °F /  25.6 °C 49 °F /  9.4 °C 29.84 in /  1010.4 hPa North 11.5 mph /  18.5 km/h 6.1 mph /  9.8 km/h 36 % 0 in /  0 mm
06:49 78.3 °F /  25.7 °C 49.1 °F /  9.5 °C 29.84 in /  1010.4 hPa North 11.5 mph /  18.5 km/h 6.4 mph /  10.3 km/h 36 % 0 in /  0 mm
06:54 78.5 °F /  25.8 °C 49.3 °F /  9.6 °C 29.84 in /  1010.4 hPa North 10.4 mph /  16.7 km/h 6 mph /  9.7 km/h 36 % 0 in /  0 mm
06:59 78.8 °F /  26 °C 48.8 °F /  9.3 °C 29.84 in /  1010.4 hPa North 7 mph /  11.3 km/h 7.5 mph /  12.1 km/h 35 % 0 in /  0 mm
07:04 79.1 °F /  26.2 °C 49.1 °F /  9.5 °C 29.84 in /  1010.4 hPa North 10.4 mph /  16.7 km/h 6.9 mph /  11.1 km/h 35 % 0 in /  0 mm
07:09 79.3 °F /  26.3 °C 49.3 °F /  9.6 °C 29.84 in /  1010.4 hPa NNE 11.5 mph /  18.5 km/h 10.1 mph /  16.3 km/h 35 % 0 in /  0 mm
07:14 79.7 °F /  26.5 °C 49.6 °F /  9.8 °C 29.84 in /  1010.4 hPa North 11.5 mph /  18.5 km/h 7.3 mph /  11.7 km/h 35 % 0 in /  0 mm
07:19 80 °F /  26.7 °C 49.1 °F /  9.5 °C 29.84 in /  1010.4 hPa NNE 13.8 mph /  22.2 km/h 7.3 mph /  11.7 km/h 34 % 0 in /  0 mm
07:24 80.4 °F /  26.9 °C 49.5 °F /  9.7 °C 29.84 in /  1010.4 hPa North 17.3 mph /  27.8 km/h 12.9 mph /  20.8 km/h 34 % 0 in /  0 mm
07:29 80.7 °F /  27.1 °C 49.7 °F /  9.8 °C 29.85 in /  1010.7 hPa North 12.7 mph /  20.4 km/h 7.7 mph /  12.4 km/h 34 % 0 in /  0 mm
07:34 81.1 °F /  27.3 °C 49.3 °F /  9.6 °C 29.85 in /  1010.7 hPa North 11 mph /  17.7 km/h 11.2 mph /  18 km/h 33 % 0 in /  0 mm
07:39 81.5 °F /  27.5 °C 49.6 °F /  9.8 °C 29.85 in /  1010.7 hPa North 11 mph /  17.7 km/h 9 mph /  14.5 km/h 33 % 0 in /  0 mm
07:44 81.7 °F /  27.6 °C 49.8 °F /  9.9 °C 29.85 in /  1010.7 hPa North 15 mph /  24.1 km/h 10.2 mph /  16.4 km/h 33 % 0 in /  0 mm
07:49 81.9 °F /  27.7 °C 49.1 °F /  9.5 °C 29.85 in /  1010.7 hPa NNE 11.5 mph /  18.5 km/h 10.6 mph /  17.1 km/h 32 % 0 in /  0 mm
07:54 82.4 °F /  28 °C 49.6 °F /  9.8 °C 29.85 in /  1010.7 hPa North 12.7 mph /  20.4 km/h 8.1 mph /  13 km/h 32 % 0 in /  0 mm
07:59 83.1 °F /  28.4 °C 50.2 °F /  10.1 °C 29.85 in /  1010.7 hPa NNW 17.3 mph /  27.8 km/h 6.5 mph /  10.5 km/h 32 % 0 in /  0 mm
08:02 83.4 °F /  28.6 °C 49.6 °F /  9.8 °C 29.85 in /  1010.7 hPa NNE 12.7 mph /  20.4 km/h 6.9 mph /  11.1 km/h 31 % 0 in /  0 mm
08:10 83.4 °F /  28.6 °C 49.6 °F /  9.8 °C 29.85 in /  1010.7 hPa NNE 12.7 mph /  20.4 km/h 6.6 mph /  10.6 km/h 31 % 0 in /  0 mm
08:19 83.8 °F /  28.8 °C 49.1 °F /  9.5 °C 29.86 in /  1011.1 hPa NNW 12 mph /  19.3 km/h 6.8 mph /  10.9 km/h 30 % 0 in /  0 mm
08:24 83.7 °F /  28.7 °C 49 °F /  9.4 °C 29.86 in /  1011.1 hPa NNW 19.6 mph /  31.5 km/h 10.9 mph /  17.5 km/h 30 % 0 in /  0 mm
08:29 83.9 °F /  28.8 °C 50 °F /  10 °C 29.86 in /  1011.1 hPa North 15 mph /  24.1 km/h 6.1 mph /  9.8 km/h 31 % 0 in /  0 mm
08:34 84.2 °F /  29 °C 49.4 °F /  9.7 °C 29.86 in /  1011.1 hPa NNW 15 mph /  24.1 km/h 7.7 mph /  12.4 km/h 30 % 0 in /  0 mm
08:39 84.7 °F /  29.3 °C 49.8 °F /  9.9 °C 29.86 in /  1011.1 hPa North 17.3 mph /  27.8 km/h 9.8 mph /  15.8 km/h 30 % 0 in /  0 mm
08:44 85 °F /  29.4 °C 50.1 °F /  10.1 °C 29.86 in /  1011.1 hPa North 11.5 mph /  18.5 km/h 11.5 mph /  18.5 km/h 30 % 0 in /  0 mm
08:49 85.5 °F /  29.7 °C 49.6 °F /  9.8 °C 29.86 in /  1011.1 hPa North 18.4 mph /  29.6 km/h 12.3 mph /  19.8 km/h 29 % 0 in /  0 mm
08:54 85.6 °F /  29.8 °C 49.7 °F /  9.8 °C 29.86 in /  1011.1 hPa NNW 10.4 mph /  16.7 km/h 6 mph /  9.7 km/h 29 % 0 in /  0 mm
08:59 85.3 °F /  29.6 °C 49.4 °F /  9.7 °C 29.86 in /  1011.1 hPa North 11 mph /  17.7 km/h 7.4 mph /  11.9 km/h 29 % 0 in /  0 mm
09:04 85.8 °F /  29.9 °C 49.9 °F /  9.9 °C 29.86 in /  1011.1 hPa NNW 11.5 mph /  18.5 km/h 6.6 mph /  10.6 km/h 29 % 0 in /  0 mm
09:09 86.8 °F /  30.4 °C 50.7 °F /  10.4 °C 29.86 in /  1011.1 hPa NNW 9.2 mph /  14.8 km/h 9 mph /  14.5 km/h 29 % 0 in /  0 mm
09:14 86.4 °F /  30.2 °C 49.4 °F /  9.7 °C 29.86 in /  1011.1 hPa NNW 23 mph /  37 km/h 11.5 mph /  18.5 km/h 28 % 0 in /  0 mm
09:19 86.4 °F /  30.2 °C 50.4 °F /  10.2 °C 29.85 in /  1010.7 hPa North 11.5 mph /  18.5 km/h 6.6 mph /  10.6 km/h 29 % 0 in /  0 mm
09:24 87.1 °F /  30.6 °C 50 °F /  10 °C 29.85 in /  1010.7 hPa North 17.3 mph /  27.8 km/h 11.4 mph /  18.3 km/h 28 % 0 in /  0 mm
09:29 87.3 °F /  30.7 °C 50.2 °F /  10.1 °C 29.85 in /  1010.7 hPa NNE 18.4 mph /  29.6 km/h 13.9 mph /  22.4 km/h 28 % 0 in /  0 mm
09:34 87.8 °F /  31 °C 50.6 °F /  10.3 °C 29.85 in /  1010.7 hPa North 21.9 mph /  35.2 km/h 13.3 mph /  21.4 km/h 28 % 0 in /  0 mm
09:39 88.9 °F /  31.6 °C 50.6 °F /  10.3 °C 29.84 in /  1010.4 hPa NNW 28.8 mph /  46.3 km/h 12.1 mph /  19.5 km/h 27 % 0 in /  0 mm
09:44 89.7 °F /  32.1 °C 50.3 °F /  10.2 °C 29.85 in /  1010.7 hPa NNW 26.5 mph /  42.6 km/h 12.6 mph /  20.3 km/h 26 % 0 in /  0 mm
09:49 89.8 °F /  32.1 °C 50.3 °F /  10.2 °C 29.85 in /  1010.7 hPa NNW 20.7 mph /  33.3 km/h 11.5 mph /  18.5 km/h 26 % 0 in /  0 mm
09:54 89.3 °F /  31.8 °C 49.9 °F /  9.9 °C 29.85 in /  1010.7 hPa North 27 mph /  43.5 km/h 13.5 mph /  21.7 km/h 26 % 0 in /  0 mm
09:59 88.6 °F /  31.4 °C 49.3 °F /  9.6 °C 29.85 in /  1010.7 hPa North 21.9 mph /  35.2 km/h 16.7 mph /  26.9 km/h 26 % 0 in /  0 mm
10:04 88.5 °F /  31.4 °C 50.3 °F /  10.2 °C 29.85 in /  1010.7 hPa NNW 19.6 mph /  31.5 km/h 12.3 mph /  19.8 km/h 27 % 0 in /  0 mm
10:09 89.4 °F /  31.9 °C 51 °F /  10.6 °C 29.84 in /  1010.4 hPa NW 17.3 mph /  27.8 km/h 14.4 mph /  23.2 km/h 27 % 0 in /  0 mm
10:14 90 °F /  32.2 °C 50.5 °F /  10.3 °C 29.84 in /  1010.4 hPa NW 13.8 mph /  22.2 km/h 9.8 mph /  15.8 km/h 26 % 0 in /  0 mm
10:19 90.6 °F /  32.6 °C 51 °F /  10.6 °C 29.84 in /  1010.4 hPa North 24.2 mph /  38.9 km/h 14.5 mph /  23.3 km/h 26 % 0 in /  0 mm
10:24 91.1 °F /  32.8 °C 50.4 °F /  10.2 °C 29.83 in /  1010 hPa NNW 18.4 mph /  29.6 km/h 12.7 mph /  20.4 km/h 25 % 0 in /  0 mm
10:29 91.9 °F /  33.3 °C 51.1 °F /  10.6 °C 29.83 in /  1010 hPa North 22 mph /  35.4 km/h 17.7 mph /  28.5 km/h 25 % 0 in /  0 mm
10:34 91.6 °F /  33.1 °C 49.7 °F /  9.8 °C 29.84 in /  1010.4 hPa NW 19.6 mph /  31.5 km/h 14.1 mph /  22.7 km/h 24 % 0 in /  0 mm
10:39 91.1 °F /  32.8 °C 50.4 °F /  10.2 °C 29.84 in /  1010.4 hPa NNW 17 mph /  27.4 km/h 12.9 mph /  20.8 km/h 25 % 0 in /  0 mm
10:44 91.4 °F /  33 °C 50.6 °F /  10.3 °C 29.84 in /  1010.4 hPa North 19 mph /  30.6 km/h 11.2 mph /  18 km/h 25 % 0 in /  0 mm
10:49 91.6 °F /  33.1 °C 49.7 °F /  9.8 °C 29.83 in /  1010 hPa NNW 19.6 mph /  31.5 km/h 12 mph /  19.3 km/h 24 % 0 in /  0 mm
10:54 92.6 °F /  33.7 °C 49.4 °F /  9.7 °C 29.83 in /  1010 hPa NNW 24.2 mph /  38.9 km/h 17.9 mph /  28.8 km/h 23 % 0 in /  0 mm
10:59 92.5 °F /  33.6 °C 50.5 °F /  10.3 °C 29.83 in /  1010 hPa NW 24 mph /  38.6 km/h 12.8 mph /  20.6 km/h 24 % 0 in /  0 mm
11:04 92.6 °F /  33.7 °C 49.4 °F /  9.7 °C 29.83 in /  1010 hPa NNW 18.4 mph /  29.6 km/h 13.7 mph /  22 km/h 23 % 0 in /  0 mm
11:09 93 °F /  33.9 °C 49.7 °F /  9.8 °C 29.83 in /  1010 hPa NW 15 mph /  24.1 km/h 10.4 mph /  16.7 km/h 23 % 0 in /  0 mm
11:14 93.1 °F /  33.9 °C 48.6 °F /  9.2 °C 29.83 in /  1010 hPa NNW 21.9 mph /  35.2 km/h 13.9 mph /  22.4 km/h 22 % 0 in /  0 mm
11:19 92.7 °F /  33.7 °C 48.3 °F /  9.1 °C 29.82 in /  1009.7 hPa NNW 18.4 mph /  29.6 km/h 8.5 mph /  13.7 km/h 22 % 0 in /  0 mm
11:24 93.4 °F /  34.1 °C 48.9 °F /  9.4 °C 29.82 in /  1009.7 hPa NNW 19.6 mph /  31.5 km/h 15.2 mph /  24.5 km/h 22 % 0 in /  0 mm
11:29 93.3 °F /  34.1 °C 48.8 °F /  9.3 °C 29.82 in /  1009.7 hPa NNW 21.9 mph /  35.2 km/h 12 mph /  19.3 km/h 22 % 0 in /  0 mm
11:34 94.1 °F /  34.5 °C 49.4 °F /  9.7 °C 29.82 in /  1009.7 hPa North 20.7 mph /  33.3 km/h 10.3 mph /  16.6 km/h 22 % 0 in /  0 mm
11:39 95 °F /  35 °C 50.2 °F /  10.1 °C 29.82 in /  1009.7 hPa NW 11.5 mph /  18.5 km/h 7.3 mph /  11.7 km/h 22 % 0 in /  0 mm
11:44 95.3 °F /  35.2 °C 47.9 °F /  8.8 °C 29.82 in /  1009.7 hPa NW 19 mph /  30.6 km/h 11.6 mph /  18.7 km/h 20 % 0 in /  0 mm
11:49 95.3 °F /  35.2 °C 47.9 °F /  8.8 °C 29.81 in /  1009.4 hPa NNW 19.6 mph /  31.5 km/h 15.1 mph /  24.3 km/h 20 % 0 in /  0 mm
11:54 95.6 °F /  35.3 °C 48.1 °F /  8.9 °C 29.81 in /  1009.4 hPa NNW 20.7 mph /  33.3 km/h 10.7 mph /  17.2 km/h 20 % 0 in /  0 mm
11:59 95.8 °F /  35.4 °C 48.3 °F /  9.1 °C 29.81 in /  1009.4 hPa North 18.4 mph /  29.6 km/h 11.7 mph /  18.8 km/h 20 % 0 in /  0 mm
12:04 95.7 °F /  35.4 °C 46.8 °F /  8.2 °C 29.80 in /  1009 hPa WNW 25.3 mph /  40.7 km/h 19.1 mph /  30.7 km/h 19 % 0 in /  0 mm
12:09 96 °F /  35.6 °C 48.5 °F /  9.2 °C 29.80 in /  1009 hPa North 17.3 mph /  27.8 km/h 9.9 mph /  15.9 km/h 20 % 0 in /  0 mm
12:14 95.5 °F /  35.3 °C 48 °F /  8.9 °C 29.80 in /  1009 hPa North 20.7 mph /  33.3 km/h 12.6 mph /  20.3 km/h 20 % 0 in /  0 mm
12:19 95.5 °F /  35.3 °C 48 °F /  8.9 °C 29.80 in /  1009 hPa NW 18.4 mph /  29.6 km/h 11.3 mph /  18.2 km/h 20 % 0 in /  0 mm
12:24 96.3 °F /  35.7 °C 47.3 °F /  8.5 °C 29.80 in /  1009 hPa North 19.6 mph /  31.5 km/h 13.3 mph /  21.4 km/h 19 % 0 in /  0 mm
12:29 97.7 °F /  36.5 °C 47 °F /  8.3 °C 29.79 in /  1008.7 hPa NW 21 mph /  33.8 km/h 15.2 mph /  24.5 km/h 18 % 0 in /  0 mm
12:34 98 °F /  36.7 °C 47.3 °F /  8.5 °C 29.79 in /  1008.7 hPa North 18.4 mph /  29.6 km/h 12 mph /  19.3 km/h 18 % 0 in /  0 mm
12:39 97.7 °F /  36.5 °C 47 °F /  8.3 °C 29.79 in /  1008.7 hPa WNW 17.3 mph /  27.8 km/h 13.2 mph /  21.2 km/h 18 % 0 in /  0 mm
12:44 97.6 °F /  36.4 °C 47 °F /  8.3 °C 29.79 in /  1008.7 hPa NW 29.9 mph /  48.1 km/h 19.4 mph /  31.2 km/h 18 % 0 in /  0 mm
12:49 98.2 °F /  36.8 °C 47.4 °F /  8.6 °C 29.79 in /  1008.7 hPa NW 19.6 mph /  31.5 km/h 12.1 mph /  19.5 km/h 18 % 0 in /  0 mm
12:54 97.9 °F /  36.6 °C 45.7 °F /  7.6 °C 29.79 in /  1008.7 hPa NW 20 mph /  32.2 km/h 13.9 mph /  22.4 km/h 17 % 0 in /  0 mm
12:59 96.8 °F /  36 °C 46.3 °F /  7.9 °C 29.79 in /  1008.7 hPa North 23 mph /  37 km/h 9.9 mph /  15.9 km/h 18 % 0 in /  0 mm
13:04 96.9 °F /  36.1 °C 46.4 °F /  8 °C 29.78 in /  1008.4 hPa WNW 15 mph /  24.1 km/h 8.7 mph /  14 km/h 18 % 0 in /  0 mm
13:09 97.6 °F /  36.4 °C 47 °F /  8.3 °C 29.78 in /  1008.4 hPa NNW 19.6 mph /  31.5 km/h 7.4 mph /  11.9 km/h 18 % 0 in /  0 mm
13:14 97.8 °F /  36.6 °C 45.6 °F /  7.6 °C 29.78 in /  1008.4 hPa North 19.6 mph /  31.5 km/h 13.7 mph /  22 km/h 17 % 0 in /  0 mm
13:19 97.6 °F /  36.4 °C 45.4 °F /  7.4 °C 29.78 in /  1008.4 hPa North 15 mph /  24.1 km/h 10.5 mph /  16.9 km/h 17 % 0 in /  0 mm
13:24 97.5 °F /  36.4 °C 43.8 °F /  6.6 °C 29.78 in /  1008.4 hPa WNW 22 mph /  35.4 km/h 15.7 mph /  25.3 km/h 16 % 0 in /  0 mm
13:29 97.3 °F /  36.3 °C 45.2 °F /  7.3 °C 29.77 in /  1008 hPa North 20 mph /  32.2 km/h 14.2 mph /  22.9 km/h 17 % 0 in /  0 mm
13:34 97.2 °F /  36.2 °C 41.8 °F /  5.4 °C 29.77 in /  1008 hPa North 23 mph /  37 km/h 13.9 mph /  22.4 km/h 15 % 0 in /  0 mm
13:39 97 °F /  36.1 °C 43.4 °F /  6.3 °C 29.77 in /  1008 hPa NNW 23 mph /  37 km/h 14.1 mph /  22.7 km/h 16 % 0 in /  0 mm
13:44 97.1 °F /  36.2 °C 43.4 °F /  6.3 °C 29.77 in /  1008 hPa North 21.9 mph /  35.2 km/h 15.6 mph /  25.1 km/h 16 % 0 in /  0 mm
13:49 97.3 °F /  36.3 °C 43.6 °F /  6.4 °C 29.77 in /  1008 hPa North 11.5 mph /  18.5 km/h 7.5 mph /  12.1 km/h 16 % 0 in /  0 mm
13:54 98.1 °F /  36.7 °C 44.2 °F /  6.8 °C 29.77 in /  1008 hPa NW 17.3 mph /  27.8 km/h 14.6 mph /  23.5 km/h 16 % 0 in /  0 mm
13:59 98 °F /  36.7 °C 44.2 °F /  6.8 °C 29.77 in /  1008 hPa NNW 18.4 mph /  29.6 km/h 11 mph /  17.7 km/h 16 % 0 in /  0 mm
14:04 98 °F /  36.7 °C 44.2 °F /  6.8 °C 29.76 in /  1007.7 hPa NW 19 mph /  30.6 km/h 10.7 mph /  17.2 km/h 16 % 0 in /  0 mm
14:09 97.7 °F /  36.5 °C 43.9 °F /  6.6 °C 29.76 in /  1007.7 hPa NNW 24.2 mph /  38.9 km/h 13.1 mph /  21.1 km/h 16 % 0 in /  0 mm
14:14 97.5 °F /  36.4 °C 43.8 °F /  6.6 °C 29.76 in /  1007.7 hPa NW 12.7 mph /  20.4 km/h 10.4 mph /  16.7 km/h 16 % 0 in /  0 mm
14:19 97.4 °F /  36.3 °C 42 °F /  5.6 °C 29.76 in /  1007.7 hPa NW 21 mph /  33.8 km/h 15.3 mph /  24.6 km/h 15 % 0 in /  0 mm
14:24 97.2 °F /  36.2 °C 41.8 °F /  5.4 °C 29.76 in /  1007.7 hPa NW 25.3 mph /  40.7 km/h 11.2 mph /  18 km/h 15 % 0 in /  0 mm
14:29 97.1 °F /  36.2 °C 41.8 °F /  5.4 °C 29.76 in /  1007.7 hPa WNW 13 mph /  20.9 km/h 10.7 mph /  17.2 km/h 15 % 0 in /  0 mm
14:34 96.9 °F /  36.1 °C 41.6 °F /  5.3 °C 29.76 in /  1007.7 hPa NNW 20.7 mph /  33.3 km/h 10.1 mph /  16.3 km/h 15 % 0 in /  0 mm
14:39 96.8 °F /  36 °C 43.2 °F /  6.2 °C 29.76 in /  1007.7 hPa NW 17.3 mph /  27.8 km/h 7.8 mph /  12.6 km/h 16 % 0 in /  0 mm
14:44 96.5 °F /  35.8 °C 43 °F /  6.1 °C 29.76 in /  1007.7 hPa NNW 15 mph /  24.1 km/h 10 mph /  16.1 km/h 16 % 0 in /  0 mm
14:49 97.2 °F /  36.2 °C 43.5 °F /  6.4 °C 29.76 in /  1007.7 hPa NW 15 mph /  24.1 km/h 12.9 mph /  20.8 km/h 16 % 0 in /  0 mm
14:54 97.4 °F /  36.3 °C 43.7 °F /  6.5 °C 29.76 in /  1007.7 hPa North 25.3 mph /  40.7 km/h 13.5 mph /  21.7 km/h 16 % 0 in /  0 mm
14:59 97 °F /  36.1 °C 43.4 °F /  6.3 °C 29.76 in /  1007.7 hPa NW 19.6 mph /  31.5 km/h 16.1 mph /  25.9 km/h 16 % 0 in /  0 mm
15:04 96.5 °F /  35.8 °C 43 °F /  6.1 °C 29.76 in /  1007.7 hPa North 16.1 mph /  25.9 km/h 11.2 mph /  18 km/h 16 % 0 in /  0 mm
15:09 96.4 °F /  35.8 °C 42.9 °F /  6.1 °C 29.76 in /  1007.7 hPa North 15 mph /  24.1 km/h 8.5 mph /  13.7 km/h 16 % 0 in /  0 mm
15:14 96.4 °F /  35.8 °C 42.9 °F /  6.1 °C 29.76 in /  1007.7 hPa North 18.4 mph /  29.6 km/h 15.5 mph /  24.9 km/h 16 % 0 in /  0 mm
15:19 96.7 °F /  35.9 °C 43.1 °F /  6.2 °C 29.76 in /  1007.7 hPa NW 20.7 mph /  33.3 km/h 12.2 mph /  19.6 km/h 16 % 0 in /  0 mm
15:24 97.7 °F /  36.5 °C 43.9 °F /  6.6 °C 29.75 in /  1007.3 hPa NW 19.6 mph /  31.5 km/h 12.7 mph /  20.4 km/h 16 % 0 in /  0 mm
15:29 98.4 °F /  36.9 °C 42.8 °F /  6 °C 29.75 in /  1007.3 hPa North 19.6 mph /  31.5 km/h 11.7 mph /  18.8 km/h 15 % 0 in /  0 mm
15:34 98 °F /  36.7 °C 42.5 °F /  5.8 °C 29.75 in /  1007.3 hPa North 20.7 mph /  33.3 km/h 15.2 mph /  24.5 km/h 15 % 0 in /  0 mm
15:39 99 °F /  37.2 °C 41.5 °F /  5.3 °C 29.75 in /  1007.3 hPa NW 20.7 mph /  33.3 km/h 12.3 mph /  19.8 km/h 14 % 0 in /  0 mm
15:44 99.4 °F /  37.4 °C 41.8 °F /  5.4 °C 29.75 in /  1007.3 hPa North 18.4 mph /  29.6 km/h 11.3 mph /  18.2 km/h 14 % 0 in /  0 mm
15:49 98.7 °F /  37.1 °C 43 °F /  6.1 °C 29.74 in /  1007 hPa NNW 21.9 mph /  35.2 km/h 13.7 mph /  22 km/h 15 % 0 in /  0 mm
15:54 98.6 °F /  37 °C 43 °F /  6.1 °C 29.74 in /  1007 hPa NW 11.5 mph /  18.5 km/h 6.5 mph /  10.5 km/h 15 % 0 in /  0 mm
15:59 98.3 °F /  36.8 °C 40.9 °F /  4.9 °C 29.74 in /  1007 hPa NNW 18.4 mph /  29.6 km/h 12.6 mph /  20.3 km/h 14 % 0 in /  0 mm
16:04 98.1 °F /  36.7 °C 40.8 °F /  4.9 °C 29.74 in /  1007 hPa WNW 18.4 mph /  29.6 km/h 12.6 mph /  20.3 km/h 14 % 0 in /  0 mm
16:09 98.4 °F /  36.9 °C 41 °F /  5 °C 29.74 in /  1007 hPa NNW 20.7 mph /  33.3 km/h 15.2 mph /  24.5 km/h 14 % 0 in /  0 mm
16:14 97.9 °F /  36.6 °C 42.4 °F /  5.8 °C 29.74 in /  1007 hPa North 17.3 mph /  27.8 km/h 9.7 mph /  15.6 km/h 15 % 0 in /  0 mm
16:19 98.6 °F /  37 °C 43 °F /  6.1 °C 29.74 in /  1007 hPa NW 18.4 mph /  29.6 km/h 13.9 mph /  22.4 km/h 15 % 0 in /  0 mm
16:24 99.1 °F /  37.3 °C 43.3 °F /  6.3 °C 29.73 in /  1006.7 hPa North 16.1 mph /  25.9 km/h 8.8 mph /  14.2 km/h 15 % 0 in /  0 mm
16:29 99.7 °F /  37.6 °C 42 °F /  5.6 °C 29.73 in /  1006.7 hPa NNW 16.1 mph /  25.9 km/h 10.7 mph /  17.2 km/h 14 % 0 in /  0 mm
16:34 99.4 °F /  37.4 °C 43.6 °F /  6.4 °C 29.73 in /  1006.7 hPa North 20.7 mph /  33.3 km/h 14.9 mph /  24 km/h 15 % 0 in /  0 mm
16:39 98.2 °F /  36.8 °C 42.6 °F /  5.9 °C 29.73 in /  1006.7 hPa NNW 19.6 mph /  31.5 km/h 9.5 mph /  15.3 km/h 15 % 0 in /  0 mm
16:44 98 °F /  36.7 °C 44.2 °F /  6.8 °C 29.73 in /  1006.7 hPa NW 19.6 mph /  31.5 km/h 11.9 mph /  19.2 km/h 16 % 0 in /  0 mm
16:49 97.5 °F /  36.4 °C 43.8 °F /  6.6 °C 29.73 in /  1006.7 hPa NW 19.6 mph /  31.5 km/h 13.8 mph /  22.2 km/h 16 % 0 in /  0 mm
16:54 97.5 °F /  36.4 °C 43.8 °F /  6.6 °C 29.73 in /  1006.7 hPa NW 12.7 mph /  20.4 km/h 6.9 mph /  11.1 km/h 16 % 0 in /  0 mm
16:59 97.6 °F /  36.4 °C 43.8 °F /  6.6 °C 29.72 in /  1006.3 hPa NNW 11.5 mph /  18.5 km/h 9.3 mph /  15 km/h 16 % 0 in /  0 mm
17:04 97.6 °F /  36.4 °C 43.8 °F /  6.6 °C 29.72 in /  1006.3 hPa NW 13.8 mph /  22.2 km/h 8.6 mph /  13.8 km/h 16 % 0 in /  0 mm
17:09 97.3 °F /  36.3 °C 43.6 °F /  6.4 °C 29.72 in /  1006.3 hPa WNW 11.5 mph /  18.5 km/h 7.9 mph /  12.7 km/h 16 % 0 in /  0 mm
17:14 97 °F /  36.1 °C 43.4 °F /  6.3 °C 29.72 in /  1006.3 hPa NW 11.5 mph /  18.5 km/h 7.1 mph /  11.4 km/h 16 % 0 in /  0 mm
17:19 96.8 °F /  36 °C 44.8 °F /  7.1 °C 29.72 in /  1006.3 hPa NW 11.5 mph /  18.5 km/h 7.5 mph /  12.1 km/h 17 % 0 in /  0 mm
17:24 96.5 °F /  35.8 °C 44.6 °F /  7 °C 29.72 in /  1006.3 hPa NNW 11.5 mph /  18.5 km/h 7.3 mph /  11.7 km/h 17 % 0 in /  0 mm
17:29 96.1 °F /  35.6 °C 44.2 °F /  6.8 °C 29.73 in /  1006.7 hPa West 21.9 mph /  35.2 km/h 17.7 mph /  28.5 km/h 17 % 0 in /  0 mm
17:34 95.9 °F /  35.5 °C 44.1 °F /  6.7 °C 29.72 in /  1006.3 hPa North 15 mph /  24.1 km/h 12.1 mph /  19.5 km/h 17 % 0 in /  0 mm
17:39 96.1 °F /  35.6 °C 44.2 °F /  6.8 °C 29.72 in /  1006.3 hPa NW 15 mph /  24.1 km/h 9 mph /  14.5 km/h 17 % 0 in /  0 mm
17:44 96.2 °F /  35.7 °C 44.3 °F /  6.8 °C 29.72 in /  1006.3 hPa North 13.8 mph /  22.2 km/h 6.6 mph /  10.6 km/h 17 % 0 in /  0 mm
17:49 95.7 °F /  35.4 °C 45.4 °F /  7.4 °C 29.73 in /  1006.7 hPa North 26.5 mph /  42.6 km/h 15.4 mph /  24.8 km/h 18 % 0 in /  0 mm
17:54 95.2 °F /  35.1 °C 43.5 °F /  6.4 °C 29.72 in /  1006.3 hPa North 17.3 mph /  27.8 km/h 13.9 mph /  22.4 km/h 17 % 0 in /  0 mm
17:59 94.9 °F /  34.9 °C 43.3 °F /  6.3 °C 29.72 in /  1006.3 hPa NNE 18.4 mph /  29.6 km/h 9.8 mph /  15.8 km/h 17 % 0 in /  0 mm
18:04 95.1 °F /  35.1 °C 41.9 °F /  5.5 °C 29.72 in /  1006.3 hPa NW 18.4 mph /  29.6 km/h 10 mph /  16.1 km/h 16 % 0 in /  0 mm
18:09 94.9 °F /  34.9 °C 43.3 °F /  6.3 °C 29.72 in /  1006.3 hPa NNW 9.2 mph /  14.8 km/h 8.7 mph /  14 km/h 17 % 0 in /  0 mm
18:14 94.9 °F /  34.9 °C 43.3 °F /  6.3 °C 29.72 in /  1006.3 hPa NNW 11.5 mph /  18.5 km/h 7.8 mph /  12.6 km/h 17 % 0 in /  0 mm
18:19 94.8 °F /  34.9 °C 43.2 °F /  6.2 °C 29.72 in /  1006.3 hPa North 12.7 mph /  20.4 km/h 7.4 mph /  11.9 km/h 17 % 0 in /  0 mm
18:24 94.8 °F /  34.9 °C 43.2 °F /  6.2 °C 29.72 in /  1006.3 hPa North 9.2 mph /  14.8 km/h 4.9 mph /  7.9 km/h 17 % 0 in /  0 mm
18:29 94.7 °F /  34.8 °C 43.1 °F /  6.2 °C 29.72 in /  1006.3 hPa NNW 11.5 mph /  18.5 km/h 7.7 mph /  12.4 km/h 17 % 0 in /  0 mm
18:34 94.6 °F /  34.8 °C 44.5 °F /  6.9 °C 29.73 in /  1006.7 hPa NNW 8.1 mph /  13 km/h 6.1 mph /  9.8 km/h 18 % 0 in /  0 mm
18:39 94 °F /  34.4 °C 45.5 °F /  7.5 °C 29.73 in /  1006.7 hPa NNW 15 mph /  24.1 km/h 8.4 mph /  13.5 km/h 19 % 0 in /  0 mm
18:44 93.9 °F /  34.4 °C 45.4 °F /  7.4 °C 29.74 in /  1007 hPa North 16.1 mph /  25.9 km/h 7.7 mph /  12.4 km/h 19 % 0 in /  0 mm
18:49 93.5 °F /  34.2 °C 45.1 °F /  7.3 °C 29.74 in /  1007 hPa NNW 17.3 mph /  27.8 km/h 8.5 mph /  13.7 km/h 19 % 0 in /  0 mm
18:54 92.7 °F /  33.7 °C 50.6 °F /  10.3 °C 29.75 in /  1007.3 hPa North 12.7 mph /  20.4 km/h 7.3 mph /  11.7 km/h 24 % 0 in /  0 mm
18:59 90.8 °F /  32.7 °C 50.1 °F /  10.1 °C 29.76 in /  1007.7 hPa WNW 22 mph /  35.4 km/h 14.1 mph /  22.7 km/h 25 % 0 in /  0 mm
19:04 88.5 °F /  31.4 °C 51.2 °F /  10.7 °C 29.78 in /  1008.4 hPa NW 29.9 mph /  48.1 km/h 17.8 mph /  28.6 km/h 28 % 0 in /  0 mm
19:09 88.2 °F /  31.2 °C 49 °F /  9.4 °C 29.77 in /  1008 hPa WNW 21.9 mph /  35.2 km/h 12.2 mph /  19.6 km/h 26 % 0 in /  0 mm
19:14 88.6 °F /  31.4 °C 49.3 °F /  9.6 °C 29.77 in /  1008 hPa NNW 11.5 mph /  18.5 km/h 7.5 mph /  12.1 km/h 26 % 0 in /  0 mm
19:19 89.6 °F /  32 °C 46.9 °F /  8.3 °C 29.77 in /  1008 hPa NNW 11.5 mph /  18.5 km/h 8.9 mph /  14.3 km/h 23 % 0 in /  0 mm
19:24 90.2 °F /  32.3 °C 47.4 °F /  8.6 °C 29.77 in /  1008 hPa NNW 15 mph /  24.1 km/h 8 mph /  12.9 km/h 23 % 0 in /  0 mm
19:29 90.3 °F /  32.4 °C 47.5 °F /  8.6 °C 29.77 in /  1008 hPa NNW 8.1 mph /  13 km/h 4.4 mph /  7.1 km/h 23 % 0 in /  0 mm
19:34 90.3 °F /  32.4 °C 46.3 °F /  7.9 °C 29.77 in /  1008 hPa North 4.6 mph /  7.4 km/h 2.4 mph /  3.9 km/h 22 % 0 in /  0 mm
19:39 90.1 °F /  32.3 °C 47.3 °F /  8.5 °C 29.77 in /  1008 hPa North 11.5 mph /  18.5 km/h 7 mph /  11.3 km/h 23 % 0 in /  0 mm
19:44 89.9 °F /  32.2 °C 47.1 °F /  8.4 °C 29.78 in /  1008.4 hPa North 5.8 mph /  9.3 km/h 2.9 mph /  4.7 km/h 23 % 0 in /  0 mm
19:49 89.6 °F /  32 °C 48 °F /  8.9 °C 29.77 in /  1008 hPa North 5.8 mph /  9.3 km/h 2.5 mph /  4 km/h 24 % 0 in /  0 mm
19:54 89.3 °F /  31.8 °C 47.8 °F /  8.8 °C 29.77 in /  1008 hPa North 4.6 mph /  7.4 km/h 1.8 mph /  2.9 km/h 24 % 0 in /  0 mm
19:59 89 °F /  31.7 °C 47.5 °F /  8.6 °C 29.77 in /  1008 hPa North 2.3 mph /  3.7 km/h 1.9 mph /  3.1 km/h 24 % 0 in /  0 mm
20:04 88.6 °F /  31.4 °C 48.3 °F /  9.1 °C 29.77 in /  1008 hPa North 3.5 mph /  5.6 km/h 2.4 mph /  3.9 km/h 25 % 0 in /  0 mm
20:09 88.2 °F /  31.2 °C 47.9 °F /  8.8 °C 29.77 in /  1008 hPa North 4.6 mph /  7.4 km/h 3.4 mph /  5.5 km/h 25 % 0 in /  0 mm
20:14 88.2 °F /  31.2 °C 47.9 °F /  8.8 °C 29.77 in /  1008 hPa North 3.5 mph /  5.6 km/h 0.9 mph /  1.4 km/h 25 % 0 in /  0 mm
20:19 88 °F /  31.1 °C 47.8 °F /  8.8 °C 29.77 in /  1008 hPa North 3.5 mph /  5.6 km/h 2.2 mph /  3.5 km/h 25 % 0 in /  0 mm
20:24 87.7 °F /  30.9 °C 48.6 °F /  9.2 °C 29.78 in /  1008.4 hPa North 4 mph /  6.4 km/h 3.2 mph /  5.1 km/h 26 % 0 in /  0 mm
20:29 87.3 °F /  30.7 °C 49.2 °F /  9.6 °C 29.78 in /  1008.4 hPa North 3.5 mph /  5.6 km/h 2.8 mph /  4.5 km/h 27 % 0 in /  0 mm
20:34 86.9 °F /  30.5 °C 48.9 °F /  9.4 °C 29.78 in /  1008.4 hPa North 3.5 mph /  5.6 km/h 1.8 mph /  2.9 km/h 27 % 0 in /  0 mm
20:39 86.4 °F /  30.2 °C 49.4 °F /  9.7 °C 29.79 in /  1008.7 hPa North 3.5 mph /  5.6 km/h 2.2 mph /  3.5 km/h 28 % 0 in /  0 mm
20:44 85.9 °F /  29.9 °C 49 °F /  9.4 °C 29.79 in /  1008.7 hPa North 3.5 mph /  5.6 km/h 3.3 mph /  5.3 km/h 28 % 0 in /  0 mm
20:49 85.8 °F /  29.9 °C 48.9 °F /  9.4 °C 29.79 in /  1008.7 hPa North 3.5 mph /  5.6 km/h 2.2 mph /  3.5 km/h 28 % 0 in /  0 mm
20:54 85.7 °F /  29.8 °C 48.8 °F /  9.3 °C 29.79 in /  1008.7 hPa North 2.3 mph /  3.7 km/h 2.1 mph /  3.4 km/h 28 % 0 in /  0 mm
20:59 85.6 °F /  29.8 °C 48.8 °F /  9.3 °C 29.79 in /  1008.7 hPa North 4.6 mph /  7.4 km/h 1.9 mph /  3.1 km/h 28 % 0 in /  0 mm
21:04 85.4 °F /  29.7 °C 49.5 °F /  9.7 °C 29.79 in /  1008.7 hPa North 1.2 mph /  1.9 km/h 0.7 mph /  1.1 km/h 29 % 0 in /  0 mm
21:09 84.7 °F /  29.3 °C 48.9 °F /  9.4 °C 29.80 in /  1009 hPa NNW 6.9 mph /  11.1 km/h 4 mph /  6.4 km/h 29 % 0 in /  0 mm
21:14 84.4 °F /  29.1 °C 48.7 °F /  9.3 °C 29.80 in /  1009 hPa NNW 2.3 mph /  3.7 km/h 1.9 mph /  3.1 km/h 29 % 0 in /  0 mm
21:19 84.2 °F /  29 °C 49.4 °F /  9.7 °C 29.80 in /  1009 hPa NNW 3.5 mph /  5.6 km/h 1.3 mph /  2.1 km/h 30 % 0 in /  0 mm
21:24 83.7 °F /  28.7 °C 49.9 °F /  9.9 °C 29.80 in /  1009 hPa West 9.2 mph /  14.8 km/h 4.3 mph /  6.9 km/h 31 % 0 in /  0 mm
21:29 83.5 °F /  28.6 °C 49.7 °F /  9.8 °C 29.81 in /  1009.4 hPa North 5 mph /  8 km/h 3.7 mph /  6 km/h 31 % 0 in /  0 mm
21:34 83 °F /  28.3 °C 50.1 °F /  10.1 °C 29.81 in /  1009.4 hPa WSW 8.1 mph /  13 km/h 6.2 mph /  10 km/h 32 % 0 in /  0 mm
21:39 82.5 °F /  28.1 °C 50.5 °F /  10.3 °C 29.82 in /  1009.7 hPa SW 5.8 mph /  9.3 km/h 4.2 mph /  6.8 km/h 33 % 0 in /  0 mm
21:44 82.1 °F /  27.8 °C 50.9 °F /  10.5 °C 29.82 in /  1009.7 hPa SW 6 mph /  9.7 km/h 3.6 mph /  5.8 km/h 34 % 0 in /  0 mm
21:49 81.8 °F /  27.7 °C 51.5 °F /  10.8 °C 29.82 in /  1009.7 hPa SW 4.6 mph /  7.4 km/h 3.6 mph /  5.8 km/h 35 % 0 in /  0 mm
21:54 81.3 °F /  27.4 °C 51 °F /  10.6 °C 29.84 in /  1010.4 hPa South 8.1 mph /  13 km/h 8.5 mph /  13.7 km/h 35 % 0 in /  0 mm
21:59 80.7 °F /  27.1 °C 52 °F /  11.1 °C 29.83 in /  1010 hPa South 6 mph /  9.7 km/h 5.4 mph /  8.7 km/h 37 % 0 in /  0 mm
22:04 79.8 °F /  26.6 °C 51.9 °F /  11.1 °C 29.84 in /  1010.4 hPa SSW 8.1 mph /  13 km/h 7.4 mph /  11.9 km/h 38 % 0 in /  0 mm
22:09 79.1 °F /  26.2 °C 52 °F /  11.1 °C 29.83 in /  1010 hPa SSW 9.2 mph /  14.8 km/h 4.5 mph /  7.2 km/h 39 % 0 in /  0 mm
22:14 78.5 °F /  25.8 °C 51.5 °F /  10.8 °C 29.84 in /  1010.4 hPa SSW 8.1 mph /  13 km/h 6.6 mph /  10.6 km/h 39 % 0 in /  0 mm
22:19 77.9 °F /  25.5 °C 51.6 °F /  10.9 °C 29.84 in /  1010.4 hPa SSW 10.4 mph /  16.7 km/h 3.3 mph /  5.3 km/h 40 % 0 in /  0 mm
22:24 77.4 °F /  25.2 °C 51.9 °F /  11.1 °C 29.86 in /  1011.1 hPa SSW 10 mph /  16.1 km/h 7.6 mph /  12.2 km/h 41 % 0 in /  0 mm
22:29 77 °F /  25 °C 51.5 °F /  10.8 °C 29.86 in /  1011.1 hPa SSW 8.1 mph /  13 km/h 2.9 mph /  4.7 km/h 41 % 0 in /  0 mm
22:34 76.7 °F /  24.8 °C 51.9 °F /  11.1 °C 29.86 in /  1011.1 hPa SSW 12 mph /  19.3 km/h 4.9 mph /  7.9 km/h 42 % 0 in /  0 mm
22:39 76.5 °F /  24.7 °C 51.7 °F /  10.9 °C 29.86 in /  1011.1 hPa SSW 9.2 mph /  14.8 km/h 6.7 mph /  10.8 km/h 42 % 0 in /  0 mm
22:44 76.4 °F /  24.7 °C 51.6 °F /  10.9 °C 29.85 in /  1010.7 hPa SSW 3.5 mph /  5.6 km/h 2.6 mph /  4.2 km/h 42 % 0 in /  0 mm
22:49 76.4 °F /  24.7 °C 51.6 °F /  10.9 °C 29.85 in /  1010.7 hPa SSW 4.6 mph /  7.4 km/h 2.3 mph /  3.7 km/h 42 % 0 in /  0 mm
22:54 76.1 °F /  24.5 °C 52 °F /  11.1 °C 29.85 in /  1010.7 hPa SSW 4.6 mph /  7.4 km/h 3.6 mph /  5.8 km/h 43 % 0 in /  0 mm
22:59 75.9 °F /  24.4 °C 52.4 °F /  11.3 °C 29.86 in /  1011.1 hPa SSW 3.5 mph /  5.6 km/h 2.1 mph /  3.4 km/h 44 % 0 in /  0 mm
23:04 75.6 °F /  24.2 °C 52.1 °F /  11.2 °C 29.86 in /  1011.1 hPa SSW 3.5 mph /  5.6 km/h 1.5 mph /  2.4 km/h 44 % 0 in /  0 mm
23:09 75.2 °F /  24 °C 51.8 °F /  11 °C 29.86 in /  1011.1 hPa SSW 3.5 mph /  5.6 km/h 2.4 mph /  3.9 km/h 44 % 0 in /  0 mm
23:14 74.8 °F /  23.8 °C 52 °F /  11.1 °C 29.85 in /  1010.7 hPa SSW 3.5 mph /  5.6 km/h 3.5 mph /  5.6 km/h 45 % 0 in /  0 mm
23:19 74.6 °F /  23.7 °C 51.9 °F /  11.1 °C 29.86 in /  1011.1 hPa SSW 3.5 mph /  5.6 km/h 0.5 mph /  0.8 km/h 45 % 0 in /  0 mm
23:24 74.5 °F /  23.6 °C 52.4 °F /  11.3 °C 29.85 in /  1010.7 hPa SSW 2.3 mph /  3.7 km/h 1.6 mph /  2.6 km/h 46 % 0 in /  0 mm
23:29 74.2 °F /  23.4 °C 52.7 °F /  11.5 °C 29.85 in /  1010.7 hPa SSW 1.2 mph /  1.9 km/h   47 % 0 in /  0 mm
23:34 73.9 °F /  23.3 °C 52.4 °F /  11.3 °C 29.85 in /  1010.7 hPa SSW 2.3 mph /  3.7 km/h 0.3 mph /  0.5 km/h 47 % 0 in /  0 mm
23:39 73.7 °F /  23.2 °C 52.8 °F /  11.6 °C 29.84 in /  1010.4 hPa Calm     48 % 0 in /  0 mm
23:44 73.4 °F /  23 °C 53.1 °F /  11.7 °C 29.85 in /  1010.7 hPa Calm     49 % 0 in /  0 mm
23:49 73 °F /  22.8 °C 52.7 °F /  11.5 °C 29.85 in /  1010.7 hPa SSW 3.5 mph /  5.6 km/h 3 mph /  4.8 km/h 49 % 0 in /  0 mm
23:54 73 °F /  22.8 °C 52.7 °F /  11.5 °C 29.85 in /  1010.7 hPa SSW 4 mph /  6.4 km/h 3.6 mph /  5.8 km/h 49 % 0 in /  0 mm
23:59 73.1 °F /  22.8 °C 53.4 °F /  11.9 °C 29.85 in /  1010.7 hPa SSW 2.3 mph /  3.7 km/h 1.9 mph /  3.1 km/h 50 % 0 in /  0 mm
Ararat Weather
Compliments of Weather Underground - 2.25 mb
Click here to send mail.


ABOUT

Live weather data from Ararat, Victoria, Australia, 3377
Data uploaded from Cumulus every 5 minutes to Weather Underground.
This site then downloads the raw data for formatting and display.
Metric and imperial data can be displayed. Graphs and historical data available.
Includes Sun and Moon times and rain image live from BOM.

Check out Ararat Weather on Facebook, Twitter and Google +

Help support ongoing costs by checking out the ads





Follow @AraratWeather